Terminal Aerodrome Forecast
Issued by NWS

Home | Current Version | Previous Version | Text Only | Print | Product List | Glossary On
Versions: 1 2 3 4 5 6 7 8 9 10 11 12 13 14 15 16 17 18 19 20 21 22
000
FTUS46 KPDT 220347 AAB
TAFALW
TAF AMD
KALW 220347Z 2204/2224 23006KT 1/2SM FG OVC002
     FM220900 18010KT 3SM -RA BR OVC015
     FM221800 15004KT P6SM OVC090=

USA.gov is the U.S. government's official web portal to all federal, state and local government web resources and services.